Terminal Aerodrome Forecast
Issued by NWS Cleveland, OH

Home | Current Version | Previous Version | Text Only | Print | Product List | Glossary Off
Versions: 1 2 3 4 5 6 7 8 9 10 11 12 13 14 15 16 17 18 19 20 21 22 23 24

791
FTUS41 KCLE 171236 AAA
TAFCLE
TAF AMD
KCLE 171236Z 1713/1818 25015G25KT 6SM -SHSN OVC020
      TEMPO 1713/1716 3SM -SHSN BR BKN015
     FM171800 28017G27KT P6SM OVC035
     FM180500 27012KT P6SM BKN030
     FM181300 25005KT P6SM SCT040=

USA.gov is the U.S. government's official web portal to all federal, state and local government web resources and services.